createdAt,value
2023-05-23T00:00:01.449Z,13.83
2023-05-23T00:05:07.368Z,13.83
2023-05-23T00:10:09.593Z,13.85
2023-05-23T00:15:12.222Z,13.91
2023-05-23T00:20:13.970Z,13.86
2023-05-23T00:25:17.974Z,13.83
2023-05-23T00:30:21.803Z,13.81
2023-05-23T00:35:26.394Z,13.81
2023-05-23T00:40:31.158Z,13.86
2023-05-23T00:45:37.339Z,13.88
2023-05-23T00:50:41.284Z,13.80
2023-05-23T00:55:46.160Z,13.74
2023-05-23T01:00:54.550Z,13.76
2023-05-23T01:05:58.454Z,13.71
2023-05-23T01:11:05.186Z,13.72
2023-05-23T01:16:16.180Z,13.75
2023-05-23T01:21:26.064Z,13.74
2023-05-23T01:26:58.118Z,13.71
2023-05-23T01:32:11.578Z,13.70
2023-05-23T01:37:19.771Z,13.70
2023-05-23T01:42:21.591Z,13.72
2023-05-23T01:47:26.904Z,13.68
2023-05-23T01:52:31.415Z,13.71
2023-05-23T01:57:37.938Z,13.68
2023-05-23T02:02:39.787Z,13.68
2023-05-23T02:07:46.109Z,13.66
2023-05-23T02:12:47.869Z,13.63
2023-05-23T02:17:49.706Z,13.62
2023-05-23T02:22:51.528Z,13.64
2023-05-23T02:27:56.304Z,13.62
2023-05-23T02:33:01.262Z,13.59
2023-05-23T02:38:03.202Z,13.56
2023-05-23T02:43:05.147Z,13.54
2023-05-23T02:48:07.037Z,13.54
2023-05-23T02:53:13.633Z,13.54
2023-05-23T02:58:16.436Z,13.53
2023-05-23T03:03:23.617Z,13.51
2023-05-23T03:08:25.620Z,13.49
2023-05-23T03:13:28.721Z,13.46
2023-05-23T03:18:30.791Z,13.40
2023-05-23T03:23:32.549Z,13.35
2023-05-23T03:28:34.397Z,13.32
2023-05-23T03:33:40.351Z,13.24
2023-05-23T03:38:42.417Z,13.14
2023-05-23T03:43:44.352Z,13.03
2023-05-23T03:48:49.648Z,12.94
2023-05-23T03:53:51.417Z,12.88
2023-05-23T03:58:55.764Z,12.82
2023-05-23T04:03:58.153Z,12.78
2023-05-23T04:09:02.621Z,12.78
2023-05-23T04:14:06.569Z,12.78
2023-05-23T04:19:12.471Z,12.77
2023-05-23T04:24:16.584Z,12.78
2023-05-23T04:29:18.517Z,12.62
2023-05-23T04:34:23.510Z,12.57
2023-05-23T04:39:25.711Z,12.69
2023-05-23T04:44:50.093Z,12.94
2023-05-23T04:49:57.623Z,13.27
2023-05-23T04:55:01.276Z,13.18
2023-05-23T05:00:10.227Z,12.73
2023-05-23T05:05:12.342Z,12.54
2023-05-23T05:10:17.265Z,12.44
2023-05-23T05:15:21.906Z,12.33
2023-05-23T05:20:28.649Z,12.28
2023-05-23T05:25:34.563Z,12.21
2023-05-23T05:30:39.022Z,12.20
2023-05-23T05:35:43.776Z,12.14
2023-05-23T05:40:48.334Z,12.12
2023-05-23T05:45:51.449Z,12.11
2023-05-23T05:50:56.356Z,12.02
2023-05-23T05:55:58.142Z,12.00
2023-05-23T06:01:02.228Z,12.04
2023-05-23T06:06:06.951Z,12.03
2023-05-23T06:11:08.970Z,11.94
2023-05-23T06:16:10.848Z,11.86
2023-05-23T06:21:12.646Z,11.83
2023-05-23T06:26:14.395Z,11.73
2023-05-23T06:31:18.359Z,11.68
2023-05-23T06:36:24.679Z,11.71
2023-05-23T06:41:27.673Z,11.79
2023-05-23T06:46:32.899Z,11.78
2023-05-23T06:51:36.947Z,11.89
2023-05-23T06:56:42.100Z,11.89
2023-05-23T07:01:46.708Z,11.79
2023-05-23T07:06:50.073Z,11.82
2023-05-23T07:11:54.873Z,11.85
2023-05-23T07:16:56.980Z,11.83
2023-05-23T07:21:59.310Z,11.80
2023-05-23T07:27:04.011Z,11.81
2023-05-23T07:32:08.838Z,11.80
2023-05-23T07:37:15.015Z,11.69
2023-05-23T07:42:19.267Z,11.75
2023-05-23T07:47:24.453Z,11.88
2023-05-23T07:52:29.776Z,12.02
2023-05-23T07:57:34.369Z,12.08
2023-05-23T08:02:39.447Z,11.94
2023-05-23T08:07:41.404Z,11.95
2023-05-23T08:12:46.003Z,12.04
2023-05-23T08:17:56.931Z,12.46
2023-05-23T08:23:02.627Z,12.65
2023-05-23T08:28:04.897Z,13.02
2023-05-23T08:33:35.178Z,13.35
2023-05-23T08:38:37.097Z,13.52
2023-05-23T08:43:50.204Z,13.84
2023-05-23T08:49:01.036Z,13.66
2023-05-23T08:54:13.167Z,13.83
2023-05-23T08:59:15.239Z,14.19
2023-05-23T09:04:18.177Z,14.25
2023-05-23T09:09:34.229Z,14.02
2023-05-23T09:14:41.517Z,13.99
2023-05-23T09:19:47.043Z,14.58
2023-05-23T09:25:00.421Z,14.66
2023-05-23T09:30:08.179Z,14.30
2023-05-23T09:35:14.420Z,14.23
2023-05-23T09:40:19.121Z,14.26
2023-05-23T09:45:34.524Z,14.38
2023-05-23T09:50:39.453Z,14.33
2023-05-23T09:55:41.417Z,14.27
2023-05-23T10:00:46.655Z,14.53
2023-05-23T10:05:53.569Z,14.97
2023-05-23T10:11:13.981Z,14.94
2023-05-23T10:16:24.072Z,15.16
2023-05-23T10:21:33.850Z,15.10
2023-05-23T10:26:36.003Z,15.03
2023-05-23T10:31:38.178Z,15.39
2023-05-23T10:36:59.902Z,15.68
2023-05-23T10:42:12.072Z,15.90
2023-05-23T10:47:28.379Z,15.90
2023-05-23T10:52:40.032Z,15.33
2023-05-23T10:57:43.913Z,15.01
2023-05-23T11:03:09.075Z,15.20
2023-05-23T11:08:16.478Z,15.56
2023-05-23T11:13:23.676Z,15.84
2023-05-23T11:18:29.121Z,15.93
2023-05-23T11:23:41.903Z,16.48
2023-05-23T11:28:59.109Z,16.61
2023-05-23T11:34:06.395Z,16.82
2023-05-23T11:39:11.214Z,16.97
2023-05-23T11:44:15.719Z,17.05
2023-05-23T11:49:18.692Z,17.01
2023-05-23T11:54:24.469Z,17.13
2023-05-23T11:59:30.939Z,17.63
2023-05-23T12:04:37.776Z,17.99
2023-05-23T12:09:44.239Z,17.89
2023-05-23T12:14:46.316Z,17.81
2023-05-23T12:19:48.140Z,18.41
2023-05-23T12:24:50.100Z,18.41
2023-05-23T12:30:07.389Z,17.38
2023-05-23T12:35:16.216Z,18.11
2023-05-23T12:40:19.877Z,18.29
2023-05-23T12:45:25.630Z,17.92
2023-05-23T12:50:27.541Z,18.03
2023-05-23T12:55:33.874Z,19.86
2023-05-23T13:00:35.707Z,19.03
2023-05-23T13:05:39.076Z,18.83
2023-05-23T13:10:41.010Z,19.67
2023-05-23T13:15:46.273Z,20.77
2023-05-23T13:20:49.124Z,20.47
2023-05-23T13:25:51.264Z,21.46
2023-05-23T13:30:53.096Z,22.81
2023-05-23T13:35:57.395Z,22.06
2023-05-23T13:41:01.377Z,21.39
2023-05-23T13:46:05.566Z,22.08
2023-05-23T13:51:07.686Z,22.38
2023-05-23T13:56:10.185Z,20.34
2023-05-23T14:01:12.288Z,23.32
2023-05-23T14:06:16.605Z,21.07
2023-05-23T14:11:18.345Z,21.67
2023-05-23T14:16:22.575Z,22.98
2023-05-23T14:21:24.334Z,26.54
2023-05-23T14:26:29.107Z,27.37
2023-05-23T14:31:32.029Z,27.18
2023-05-23T14:36:35.851Z,25.62
2023-05-23T14:41:39.884Z,28.05
2023-05-23T14:46:48.498Z,28.89
2023-05-23T14:51:51.710Z,29.40
2023-05-23T14:56:56.810Z,28.37
2023-05-23T15:01:58.817Z,23.79
2023-05-23T15:07:01.091Z,23.36
2023-05-23T15:12:09.822Z,22.74
2023-05-23T15:17:20.172Z,22.79
2023-05-23T15:22:36.437Z,23.15
2023-05-23T15:27:44.921Z,24.53
2023-05-23T15:32:47.958Z,22.97
2023-05-23T15:37:49.810Z,21.28
2023-05-23T15:42:53.654Z,19.78
2023-05-23T15:47:57.233Z,20.38
2023-05-23T15:52:59.088Z,22.72
2023-05-23T15:58:03.209Z,25.60
2023-05-23T16:03:05.046Z,24.66
2023-05-23T16:08:06.898Z,25.74
2023-05-23T16:13:09.184Z,23.76
2023-05-23T16:18:15.295Z,24.02
2023-05-23T16:23:19.393Z,26.50
2023-05-23T16:28:21.769Z,28.50
2023-05-23T16:33:23.595Z,26.76
2023-05-23T16:38:25.486Z,25.64
2023-05-23T16:43:27.471Z,25.28
2023-05-23T16:48:29.240Z,27.17
2023-05-23T16:53:31.018Z,25.65
2023-05-23T16:58:38.438Z,26.22
2023-05-23T17:03:41.548Z,22.00
2023-05-23T17:08:48.245Z,19.94
2023-05-23T17:13:50.302Z,19.06
2023-05-23T17:18:52.570Z,18.11
2023-05-23T17:23:56.473Z,17.57
2023-05-23T17:29:00.460Z,17.09
2023-05-23T17:34:02.352Z,16.79
2023-05-23T17:39:07.023Z,16.38
2023-05-23T17:44:08.823Z,16.15
2023-05-23T17:49:10.504Z,16.24
2023-05-23T17:54:12.327Z,15.96
2023-05-23T17:59:15.624Z,16.01
2023-05-23T18:04:22.206Z,15.79
2023-05-23T18:09:26.365Z,15.65
2023-05-23T18:14:30.725Z,15.50
2023-05-23T18:19:32.585Z,14.87
2023-05-23T18:24:34.439Z,14.53
2023-05-23T18:29:38.753Z,14.41
2023-05-23T18:34:40.943Z,14.22
2023-05-23T18:39:42.782Z,13.98
2023-05-23T18:44:44.518Z,13.94
2023-05-23T18:49:46.410Z,13.71
2023-05-23T18:54:54.011Z,13.60
2023-05-23T18:59:58.599Z,13.43
2023-05-23T19:05:02.831Z,13.16
2023-05-23T19:10:09.777Z,12.95
2023-05-23T19:15:13.745Z,12.98
2023-05-23T19:20:20.047Z,12.75
2023-05-23T19:25:22.097Z,12.49
2023-05-23T19:30:24.410Z,12.30
2023-05-23T19:35:26.363Z,12.14
2023-05-23T19:40:28.189Z,11.90
2023-05-23T19:45:33.065Z,11.67
2023-05-23T19:50:37.441Z,11.60
2023-05-23T19:55:39.966Z,11.72
2023-05-23T20:00:42.967Z,11.73
2023-05-23T20:05:45.182Z,11.62
2023-05-23T20:10:47.157Z,11.50
2023-05-23T20:15:51.342Z,11.39
2023-05-23T20:20:53.435Z,11.41
2023-05-23T20:26:02.734Z,11.53
2023-05-23T20:31:07.516Z,11.58
2023-05-23T20:36:09.313Z,11.64
2023-05-23T20:41:11.342Z,11.64
2023-05-23T20:46:15.868Z,11.36
2023-05-23T20:51:19.963Z,11.17
2023-05-23T20:56:22.623Z,11.17
2023-05-23T21:01:26.683Z,11.10
2023-05-23T21:06:28.448Z,11.04
2023-05-23T21:11:32.979Z,10.95
2023-05-23T21:16:34.748Z,10.98
2023-05-23T21:21:38.713Z,10.95
2023-05-23T21:26:45.268Z,10.90
2023-05-23T21:31:50.116Z,10.70
2023-05-23T21:36:53.384Z,10.69
2023-05-23T21:41:58.111Z,10.60
2023-05-23T21:47:02.585Z,10.43
2023-05-23T21:52:07.283Z,10.36
2023-05-23T21:57:09.031Z,10.29
2023-05-23T22:02:11.453Z,10.33
2023-05-23T22:07:15.652Z,10.37
2023-05-23T22:12:19.554Z,10.38
2023-05-23T22:17:26.287Z,10.40
2023-05-23T22:22:30.480Z,10.29
2023-05-23T22:27:32.633Z,10.13
2023-05-23T22:32:34.356Z,10.00
2023-05-23T22:37:36.218Z,10.04
2023-05-23T22:42:40.424Z,10.15
2023-05-23T22:47:48.381Z,10.11
2023-05-23T22:52:50.706Z,10.00
2023-05-23T22:57:52.511Z,10.01
2023-05-23T23:02:54.540Z,9.89
2023-05-23T23:07:56.281Z,9.77
2023-05-23T23:13:00.324Z,9.74
2023-05-23T23:18:05.926Z,9.77
2023-05-23T23:23:07.809Z,9.83
2023-05-23T23:28:09.601Z,9.87
2023-05-23T23:33:11.776Z,9.91
2023-05-23T23:38:13.532Z,9.90
2023-05-23T23:43:17.878Z,9.88
2023-05-23T23:48:19.776Z,9.86
2023-05-23T23:53:30.103Z,9.83
2023-05-23T23:58:36.582Z,9.80
